Tiempo atmosférico en la estación meteorológica de Salamanca Aeropuerto, Salamanca (790 m.)



Fecha
DESCASC
Temp. máxima en grados centígrados (hora)
DESCASC
Temp. mínima en grados centígrados (hora)
DESCASC
Temp. media en grados centígrados
DESCASC
Racha de viento máxima en m/sg (hora)
DESCASC
Velocidad máxima media en intervalos de 10 minutos(hora)
DESCASC
Precipitaciones diarias en mm
DESCASC
Precipitaciones de 00:00 a 06:00 en mm
DESCASC
Precipitaciones de 06:00 a 12:00 en mm
DESCASC
Precipitaciones de 12:00 a 18:00 en mm
DESCASC
Precipitaciones de 18:00 a 24:00 en mm
DESCASC
11-12-2019 9.5 (15:00) 0.4 (05:10) 5 11.67 (16:20) 8.89 (16:30) 0.7 0 0.7 0 0
08-12-2019 11.1 (13:00) -3 (-00:0) 4.1 7.78 (13:20) 5 (13:20) 3 0 0 3 0
07-12-2019 12.8 (15:20) -1.3 (-00:0) 5.8 4.17 (15:30) 2.78 (15:50) 0 0 0 0 0
06-12-2019 12.1 (16:50) -0.9 (-00:0) 5.6 4.17 (01:20) 3.33 (01:00) 0 0 0 0 0
05-12-2019 9.2 (16:00) -0.3 (00:00) 4.4 9.72 (12:00) 6.11 (12:00) 0 0 0 0 0
04-12-2019 6.6 (15:30) -3.7 (05:00) 1.4 7.78 (14:40) 5 (14:40) 0 0 0 0 0
03-12-2019 6.8 (15:40) -2.4 (-00:0) 2.2 9.17 (11:50) 6.39 (11:20) 0 0 0 0 0
02-12-2019 9.5 (15:30) 1 (00:00) 5.3 15.28 (11:50) 11.39 (12:30) 0 0 0 0 0
01-12-2019 11.2 (14:20) 2.9 (00:00) 7 11.39 (23:40) 8.06 (23:40) 2.1 0.2 1.7 0 0.2
30-11-2019 14.2 (13:10) 4.1 (00:00) 9.1 16.39 (13:10) 12.5 (13:20) 5.5 0 0 5.4 0.1
29-11-2019 14.1 (15:00) 11.1 (00:00) 12.6 8.89 (02:30) 6.94 (13:10) 2.1 0 1.8 0.3 0
28-11-2019 13.7 (13:10) 7.1 (08:40) 10.4 13.89 (16:00) 10.56 (16:00) 0 0 0 0 0
27-11-2019 12.4 (14:40) 5.8 (00:00) 9.1 17.5 (01:20) 11.94 (01:20) 0 0 0 0 0
26-11-2019 15.1 (14:00) 8.2 (00:00) 11.7 19.72 (12:20) 14.72 (12:40) 1 0 0.2 0.3 0.5
25-11-2019 14.3 (13:50) 7.2 (08:40) 10.8 16.11 (00:10) 12.22 (00:10) 0.7 0.7 0 0 0
24-11-2019 10.4 (16:30) 2.1 (00:00) 6.2 16.11 (23:40) 11.11 (23:00) 0 0 0 0 0
23-11-2019 10.1 (13:50) 3.3 (00:00) 6.7 18.06 (00:20) 11.39 (01:10) 0 0 0 0 0
22-11-2019 13.8 (14:30) 6.5 (00:00) 10.2 24.72 (11:40) 18.61 (11:40) 4 0.2 2.6 1 0.2
21-11-2019 10.9 (15:10) 2.5 (00:00) 6.7 12.5 (14:10) 7.78 (14:00) 0.9 0.1 0.5 0.3 0
20-11-2019 7.6 (16:20) 2.8 (21:20) 5.2 9.72 (12:30) 7.22 (16:50) 8.1 0.8 7 0.3 0
19-11-2019 9.7 (14:30) -3.3 (-00:0) 3.2 6.11 (13:40) 3.89 (13:50) 0 0 0 0 0
18-11-2019 9.7 (16:00) -2.2 (-00:0) 3.7 5.83 (15:00) 3.61 (02:20) 0 0 0 0 0
17-11-2019 11.1 (14:00) 0.6 (00:00) 5.9 13.89 (14:10) 10 (14:30) 2.7 0 0.2 2.4 0.1
16-11-2019 8.2 (15:50) -3.7 (-00:0) 2.2 10.83 (17:00) 7.22 (17:10) 0 0 0 0 0
15-11-2019 8 (14:50) 0.2 (00:00) 4.1 12.5 (00:10) 9.44 (00:10) 0 0 0 0 0

Gráficas

Temp. máximas Temp. mínimas Temp. medias Precipitaciones Rachas de viento máximas Velocidades máximas media en intervalos de 10 minutos

Datos horarios

Fecha y hora oficial Temperatura (ºC) Velocidad del viento (km/h) Dirección del viento Racha (km/h) Dirección de racha Precipitación (mm) Presión (hPa) Tendencia (hPa) Humedad (%)
2019-12-14 23:00:00 8.8 21 Sudoeste 28 Sudoeste 0 925.4 -0.3 86
2019-12-14 22:00:00 8.8 22 Sudoeste 32 Sudoeste 0 925.4 -0.3 85
2019-12-14 21:00:00 8.6 18 Sudoeste 28 Sudoeste 0 925.6 -0.1 87
2019-12-14 20:00:00 8.4 19 Sudoeste 30 Sudoeste 0 925.7 -0.1 87
2019-12-14 19:00:00 9 22 Sudoeste 35 Sudoeste 0 925.7 0.1 84
2019-12-14 18:00:00 9.5 22 Sudoeste 32 Sudoeste 0 925.7 -0.4 82
2019-12-14 17:00:00 10.1 22 Sudoeste 32 Sudoeste 0 925.8 -0.6 80
2019-12-14 16:00:00 10.7 19 Oeste 41 Oeste 0 925.6 -1.4 78
2019-12-14 15:00:00 11 27 Oeste 41 Oeste 0 926.1 -1.8 75
2019-12-14 14:00:00 10.8 26 Oeste 35 Oeste 0 926.4 -1.5 76
2019-12-14 13:00:00 10.6 24 Sudoeste 35 Oeste 0 927 -0.7 76
2019-12-14 12:00:00 9.8 24 Oeste 35 Oeste 0 927.9 0.3 83
2019-12-14 11:00:00 9 17 Sudoeste 26 Oeste 0 927.9 0.3 85
2019-12-14 10:00:00 8.4 17 Sudoeste 24 Sudoeste 0 927.7 0.4 88
2019-12-14 09:00:00 8.2 18 Sudoeste 26 Sudoeste 0 927.6 0.5 87
2019-12-14 08:00:00 8.1 19 Sudoeste 32 Oeste 0 927.6 0.3 85
2019-12-14 07:00:00 8.2 23 Oeste 35 Oeste 0 927.3 -0.3 85
2019-12-14 06:00:00 8.1 18 Sudoeste 30 Sudoeste 0 927.1 -0.5 84
2019-12-14 05:00:00 8.3 22 Sudoeste 32 Sudoeste 0 927.3 0 85
2019-12-14 04:00:00 8.5 23 Sudoeste 39 Oeste 0 927.6 0 85
2019-12-14 03:00:00 8.3 23 Sudoeste 35 Sudoeste 0 927.6 -0.1 85
2019-12-14 02:00:00 7.2 20 Sudoeste 28 Oeste 0 927.3 -0.3 90
2019-12-14 01:00:00 8.3 22 Oeste 37 Oeste 0 927.6 0 87
2019-12-14 00:00:00 9.3 25 Oeste 39 Oeste 0 927.7 0.6 87
2019-12-13 23:00:00 9.4 25 Oeste 41 Oeste 0 927.6 0.7 89
2019-12-13 22:00:00 9.2 25 Oeste 45 Oeste 0 927.6 0.6 90
2019-12-13 21:00:00 9.3 29 Oeste 39 Oeste 0 927.1 0.3 91
2019-12-13 20:00:00 10 24 Oeste 41 Oeste 0 926.9 0 88
2019-12-13 19:00:00 10.4 26 Sudoeste 39 Sudoeste 0 927 0 88
2019-12-13 18:00:00 10.7 26 Oeste 39 Oeste 0 926.8 0.1 88
2019-12-13 17:00:00 11.6 26 Oeste 45 Oeste 0 926.9 0.2 84
2019-12-13 16:00:00 12 26 Oeste 41 Oeste 0 927 -0.1 84
2019-12-13 15:00:00 11.7 27 Oeste 50 Oeste 0 926.7 -0.6 87
2019-12-13 14:00:00 12 32 Oeste 48 Oeste 0 926.7 -0.2 83
2019-12-13 13:00:00 11.3 32 Oeste 48 Oeste 0 927.1 0.8 85
2019-12-13 12:00:00 11.5 33 Oeste 54 Oeste 0 927.3 1.6 82
2019-12-13 11:00:00 10.9 30 Oeste 54 Oeste 0 926.9 1.3 81
2019-12-13 10:00:00 9.8 31 Sudoeste 41 Sudoeste 0 926.3 1.8 85
2019-12-13 09:00:00 9.5 28 Sudoeste 41 Oeste 0 925.7 1.8 86
2019-12-13 08:00:00 9.3 21 Oeste 54 Oeste 0 925.6 1.8 87
2019-12-13 07:00:00 9.3 30 Oeste 55 Oeste 0 924.5 0.5 86
2019-12-13 06:00:00 9.8 42 Oeste 58 Oeste 0 923.9 0 87
2019-12-13 05:00:00 9.9 31 Oeste 50 Oeste 0 923.8 0.6 89
2019-12-13 04:00:00 10.4 30 Oeste 46 Oeste 0 924 0 90
2019-12-13 03:00:00 10.8 28 Oeste 48 Oeste 0 923.9 0.4 89
2019-12-13 02:00:00 10.7 33 Oeste 48 Oeste 0 923.2 -0.5 90
2019-12-13 01:00:00 10.8 26 Oeste 46 Oeste 0 924 0.7 88
2019-12-13 00:00:00 10.9 33 Oeste 46 Oeste 0 923.5 -0.1 87
2019-12-12 23:00:00 10.8 32 Oeste 46 Oeste 0 923.7 0.1 88
2019-12-12 22:00:00 10.4 33 Oeste 46 Oeste 0 923.3 0.2 89
2019-12-12 21:00:00 10.1 31 Oeste 48 Oeste 0 923.6 0.4 91
2019-12-12 20:00:00 9.9 37 Oeste 63 Oeste 0 923.6 -0.1 90
2019-12-12 19:00:00 9.3 46 Oeste 61 Oeste 0 923.1 -0.9 91
2019-12-12 18:00:00 8.6 42 Oeste 59 Oeste 0 923.2 -1.5 91
2019-12-12 17:00:00 8 38 Oeste 54 Oeste 0 923.7 -2.1 92
2019-12-12 16:00:00 7.6 37 Oeste 61 Oeste 0 924 -2.6 92
2019-12-12 15:00:00 7.5 41 Oeste 58 Oeste 0 924.7 -3.3 88
2019-12-12 14:00:00 7.1 33 Oeste 55 Oeste 0 925.8 -2.9 93
2019-12-12 13:00:00 7.5 34 Oeste 54 Oeste 0 926.6 -2.5 83
2019-12-12 12:00:00 7.1 35 Oeste 55 Oeste 0 928 -0.7 87
2019-12-12 11:00:00 6.7 35 Oeste 52 Oeste 0 928.7 -0.6 86
2019-12-12 10:00:00 6 29 Oeste 39 Oeste 0 929.1 -0.7 87
2019-12-12 09:00:00 5.4 26 Oeste 41 Oeste 0 928.7 -1.5 90
2019-12-12 08:00:00 5.2 26 Oeste 37 Oeste 0 929.3 -1.7 92
2019-12-12 07:00:00 5.1 24 Oeste 37 Oeste 0 929.8 -1.9 91
2019-12-12 06:00:00 4.4 21 Oeste 30 Oeste 0 930.2 -1.5 93
2019-12-12 05:00:00 3.2 14 Oeste 32 Oeste 0 931 -1.7 94
2019-12-12 04:00:00 3.8 18 Oeste 28 Oeste 0 931.7 -1.7 93
2019-12-12 03:00:00 3.8 21 Oeste 28 Oeste 0 931.7 -1.8 93
2019-12-12 02:00:00 3.6 20 Oeste 28 Oeste 0 932.7 -1.2 92
2019-12-12 01:00:00 3.1 17 Oeste 28 Oeste 0 933.4 -0.8 91
2019-12-12 00:00:00 3.7 20 Oeste 30 Oeste 0 933.5 -0.9 88
2019-12-11 23:00:00 2.9 13 Oeste 28 Oeste 0 933.9 -0.5 87
2019-12-11 22:00:00 3.6 21 Oeste 30 Oeste 0 934.2 -0.2 83
2019-12-11 21:00:00 3.3 15 Sudoeste 24 Oeste 0 934.4 0.5 82
2019-12-11 20:00:00 3 14 Oeste 21 Oeste 0 934.4 1 82
2019-12-11 19:00:00 3.7 14 Sudoeste 26 Sudoeste 0 934.4 1.2 81
2019-12-11 18:00:00 5.1 13 Oeste 33 Noroeste 0 933.9 0.9 72
2019-12-11 17:00:00 7.4 23 Oeste 42 Noroeste 0 933.4 0.5 64
2019-12-11 16:00:00 8.6 23 Oeste 37 Noroeste 0 933.2 0.2 62
2019-12-11 15:00:00 9.2 19 Oeste 33 Oeste 0 933 -0.5 66
2019-12-11 14:00:00 8.5 22 Noroeste 32 Noroeste 0 932.9 0.2 74
2019-12-11 13:00:00 7.7 21 Oeste 35 Noroeste 0 933 1.8 78
2019-12-11 12:00:00 6.7 27 Noroeste 39 Noroeste 0 933.5 2.7 83
2019-12-11 11:00:00 6.4 24 Oeste 39 Oeste 0 932.7 2.6 89
2019-12-11 10:00:00 5.5 14 Oeste 32 Oeste 0.1 931.2 1.5 96
2019-12-11 09:00:00 4.7 17 Oeste 26 Noroeste 0.3 930.8 1.2 93
2019-12-11 08:00:00 3.5 0 Calma 8 Norte 0.3 930.1 -0.1 90
2019-12-11 07:00:00 2.3 0 Calma 9 Sudoeste 0 929.7 -1.3 90
2019-12-11 06:00:00 1.1 5 Sur 8 Sur 0 929.6 -1.9 88
2019-12-11 05:00:00 0.8 0 Calma 8 Sudeste 0 930.2 -1.7 89
2019-12-11 04:00:00 1.8 5 Sur 11 Sur 0 931 -1.6 84
2019-12-11 03:00:00 0.8 0 Calma 11 Sudoeste 0 931.5 -1.3 85
2019-12-11 02:00:00 3.9 8 Sudoeste 13 Sudoeste 0 931.9 -1 67
2019-12-11 01:00:00 1.6 9 Oeste 15 Sudoeste 0 932.6 -0.5 82
2019-12-11 00:00:00 1.7 5 Oeste 9 Oeste 0 932.8 -0.7 95
2019-12-10 23:00:00 2.4 2 Sudoeste 11 Sur 0 932.9 -1 91
2019-12-10 22:00:00 3.9 5 Sudoeste 9 Sudoeste 0 933.1 -0.4 93
2019-12-10 21:00:00 3.6 8 Sudoeste 9 Sudoeste 0 933.5 0 93
2019-12-10 20:00:00 3.5 5 Oeste 9 Oeste 0 933.9 0.2 91
2019-12-10 19:00:00 6.1 4 Este 5 Nordeste 0 933.5 -0.8 89
2019-12-10 18:00:00 8 3 Este 8 Este 0 933.5 -1.4 84
2019-12-10 17:00:00 8.9 5 Sudeste 11 Sudeste 0 933.7 -1.9 78
2019-12-10 16:00:00 10 10 Sudeste 11 Sudeste 0 934.3 -2.1 70
2019-12-10 15:00:00 10.5 4 Este 9 Sudeste 0 934.9 -2.4 62
2019-12-10 14:00:00 8.8 0 Calma 9 Norte 0 935.6 -2.1 77
2019-12-10 13:00:00 6.5 0 Calma 8 Nordeste 0 936.4 -1.3 88
2019-12-10 12:00:00 3.3 3 Sudeste 8 Sudeste 0 937.3 0.1 98
2019-12-10 11:00:00 0.4 0 Calma 9 Este 0 937.7 0.7 99
2019-12-10 10:00:00 -1 0 Calma 8 Noroeste 0 937.7 0.6 99
2019-12-10 09:00:00 -1.6 4 Sudeste 8 Sudeste 0 937.2 -0.4 99
2019-12-10 08:00:00 -0.6 6 Este 9 Este 0 937 -0.8 99
2019-12-10 07:00:00 -1 3 Este 5 Este 0 937.1 -1.2 98
2019-12-10 06:00:00 -2.6 0 Calma 5 Oeste 0 937.6 -0.4 98
2019-12-10 05:00:00 -2.6 6 Sudeste 9 Sudeste 0 937.8 -1 98
2019-12-10 04:00:00 -1.5 0 Calma 8 Este 0 938.3 -0.6 98
2019-12-10 03:00:00 -1.4 6 Este 9 Este 0 938 -1.2 98
2019-12-10 02:00:00 -1.4 0 Calma 5 Noroeste 0 938.8 -0.3 98
2019-12-10 01:00:00 -1 2 Sur 5 Sur 0 938.9 -0.2 98
2019-12-10 00:00:00 -1.2 4 Noroeste 8 Noroeste 0 939.2 0.6 97
2019-12-09 23:00:00 0.1 5 Sudeste 9 Este 0 939.1 0.6 96
2019-12-09 22:00:00 1 4 Nordeste 8 Este 0 939.1 1.2 97
2019-12-09 21:00:00 2 8 Sudeste 13 Este 0 938.6 1.2 95
2019-12-09 20:00:00 4.3 0 Calma 9 Sur 0 938.5 1.4 94
2019-12-09 19:00:00 6.3 7 Noroeste 11 Noroeste 0 937.9 0.9 89
2019-12-09 18:00:00 7.8 10 Noroeste 18 Oeste 0 937.4 0.4 85
2019-12-09 17:00:00 9.8 13 Oeste 18 Oeste 0 937.1 -0.1 77
2019-12-09 16:00:00 10.6 12 Oeste 24 Oeste 0 937 -0.8 76
2019-12-09 15:00:00 11.6 17 Oeste 22 Oeste 0 937 -1.5 62
2019-12-09 14:00:00 11.4 11 Oeste 22 Oeste 0 937.2 -1.2 63
2019-12-09 13:00:00 9.2 11 Oeste 18 Oeste 0 937.8 -0.5 81
2019-12-09 12:00:00 7.3 9 Oeste 15 Sudoeste 0 938.5 0.8 90
2019-12-09 11:00:00 5.4 11 Sudoeste 17 Sudoeste 0 938.4 1.1 95
2019-12-09 10:00:00 4.8 10 Oeste 21 Oeste 0 938.3 1.5 96
2019-12-09 09:00:00 4.5 13 Oeste 18 Oeste 0 937.7 1.7 98
2019-12-09 08:00:00 4.1 8 Oeste 13 Oeste 0 937.3 1.2 99
2019-12-09 07:00:00 2.4 12 Noroeste 15 Oeste 0 936.8 0.4 98
2019-12-09 06:00:00 2.1 13 Sudoeste 15 Oeste 0 936 -0.3 97
2019-12-09 05:00:00 3.7 11 Oeste 15 Oeste 0 936.1 -0.2 96
2019-12-09 04:00:00 6.1 13 Oeste 17 Oeste 0 936.4 0.2 91
2019-12-09 03:00:00 7.9 10 Oeste 13 Oeste 0 936.3 0.8 92
2019-12-09 02:00:00 8.6 6 Oeste 17 Noroeste 0 936.3 1.4 91
2019-12-09 01:00:00 8.8 9 Noroeste 13 Oeste 0 936.2 1.5 95
2019-12-09 00:00:00 9.1 8 Oeste 15 Oeste 0 935.5 1 95
2019-12-08 23:00:00 9.7 7 Oeste 18 Oeste 0 934.9 0.8 96
2019-12-08 22:00:00 10.1 10 Noroeste 22 Noroeste 0 934.7 1.4 97
2019-12-08 21:00:00 10.4 12 Noroeste 18 Noroeste 0 934.5 1.7 98
2019-12-08 20:00:00 10.2 14 Noroeste 21 Oeste 0 934.1 1.4 99
2019-12-08 19:00:00 10.1 10 Oeste 17 Oeste 0 933.3 0.6 98
2019-12-08 18:00:00 10.2 10 Oeste 18 Oeste 0 932.8 0.1 97
2019-12-08 17:00:00 10.4 10 Oeste 21 Oeste 0.1 932.7 -0.5 96
2019-12-08 16:00:00 10.5 14 Oeste 22 Oeste 0 932.7 -0.4 96
2019-12-08 15:00:00 10.3 12 Oeste 21 Oeste 2.1 932.7 -0.7 97
2019-12-08 14:00:00 10.3 15 Oeste 28 Oeste 0.8 933.2 -0.3 95
2019-12-08 13:00:00 11 17 Oeste 26 Oeste 0 933.1 -0.1 89
2019-12-08 12:00:00 9.2 10 Oeste 15 Oeste 0 933.4 0.3 90
2019-12-08 11:00:00 6.5 5 Sur 9 Sur 0 933.5 0.3 92
2019-12-08 10:00:00 3.6 0 Calma 9 Norte 0 933.2 0.5 97
2019-12-08 09:00:00 1.8 3 Noroeste 8 Noroeste 0 933.1 0.4 97
2019-12-08 08:00:00 0.7 0 Calma 5 Norte 0 933.2 0.6 98
2019-12-08 07:00:00 0 5 Sudeste 8 Norte 0 932.7 -0.1 98
2019-12-08 06:00:00 -2.2 3 Este 8 Sudeste 0 932.7 -0.5 97
2019-12-08 05:00:00 -2.7 0 Calma 15 Norte 0 932.6 -0.4 97
2019-12-08 04:00:00 -2.5 0 Calma -- -- 0 932.8 -0.4 97
2019-12-08 03:00:00 -2 0 Calma -- -- 0 933.2 -0.3 97
2019-12-08 02:00:00 -1.8 0 Calma 4 Nordeste 0 933 -0.3 97
2019-12-08 01:00:00 -1.6 4 Nordeste -- -- 0 933.2 0.3 96
2019-12-08 00:00:00 -0.4 0 Calma 2 Nordeste 0 933.5 0.8 97
2019-12-07 23:00:00 0.2 2 Sudeste -- -- 0 933.3 0.8 96
2019-12-07 22:00:00 1.5 4 Sur 5 Sur 0 932.9 0.9 96
2019-12-07 21:00:00 2.3 0 Calma 8 Sudeste 0 932.7 0.8 95
2019-12-07 20:00:00 4.2 4 Sudeste 5 Sur 0 932.5 0.9 92
2019-12-07 19:00:00 6.3 5 Sudeste -- -- 0 932 0.7 83
2019-12-07 18:00:00 10.6 0 Calma 2 Oeste 0 931.9 0.6 66
2019-12-07 17:00:00 12.4 0 Calma 15 Norte 0 931.6 -0.2 61
2019-12-07 16:00:00 12.6 9 Noroeste 15 Noroeste 0 931.3 -0.8 65
2019-12-07 15:00:00 12.4 6 Norte 13 Norte 0 931.3 -1.5 64
2019-12-07 14:00:00 10.7 5 Noroeste 9 Oeste 0 931.8 -0.9 72
2019-12-07 13:00:00 6.2 0 Calma 5 Norte 0 932.1 -0.3 99
2019-12-07 12:00:00 2.7 0 Calma 9 Este 0 932.8 0.7 99
2019-12-07 11:00:00 0.2 3 Este 5 Sudeste 0 932.7 0.8 99
2019-12-07 10:00:00 -0.8 0 Calma 5 Sur 0 932.4 1.1 99
2019-12-07 09:00:00 -1.3 0 Calma -- -- 0 932.1 1 99
2019-12-07 08:00:00 -1.1 0 Calma 5 Nordeste 0 931.9 0.5 99
2019-12-07 07:00:00 -0.2 4 Este 9 Este 0 931.3 -0.5 99
2019-12-07 06:00:00 0.2 5 Sudeste 9 Este 0 931.1 -0.6 99
2019-12-07 05:00:00 0.1 0 Calma 8 Sur 0 931.4 -0.1 99
2019-12-07 04:00:00 0.6 7 Sudeste 9 Sudeste 0 931.8 0.1 99
2019-12-07 03:00:00 0.1 2 Norte 8 Norte 0 931.7 -0.2 99
2019-12-07 02:00:00 -0.4 3 Sudeste 8 Norte 0 931.5 -0.2 99
2019-12-07 01:00:00 -0.6 0 Calma 9 Norte 0 931.7 0.3 98
2019-12-07 00:00:00 -0.3 4 Sudeste -- -- 0 931.9 0.4 98
2019-12-06 23:00:00 -0.6 5 Norte 13 Norte 0 931.7 1 97
2019-12-06 22:00:00 0.6 2 Sur 5 Sur 0 931.4 1.3 95
2019-12-06 21:00:00 1.1 0 Calma 8 Norte 0 931.5 1.7 95
2019-12-06 20:00:00 2 7 Norte -- -- 0 930.7 0.9 94
2019-12-06 19:00:00 4.3 9 Sudeste 13 Sudeste 0 930.1 0.4 89
2019-12-06 18:00:00 -- -- -- -- -- 0 929.8 -0.4 --
2019-12-06 17:00:00 12 0 Calma 8 Sur 0 929.8 -1.1 68
2019-12-06 16:00:00 10.9 2 Sudoeste 9 Sudoeste 0 929.7 -1.5 74
2019-12-06 15:00:00 9 5 Sudoeste 9 Sudoeste 0 930.2 -1.5 82
2019-12-06 14:00:00 5.2 0 Calma 9 Noroeste 0 930.9 -1.2 99
2019-12-06 13:00:00 3.7 0 Calma 9 Norte 0 931.2 -0.1 99
2019-12-06 12:00:00 2.2 2 Oeste 9 Este 0 931.7 0.4 99
2019-12-06 11:00:00 1.2 0 Calma 11 Sur 0 932.1 1.8 99
2019-12-06 10:00:00 0.8 7 Sur 13 Sur 0 931.3 0.9 99
2019-12-06 09:00:00 0.7 0 Calma 11 Sudeste 0 931.3 1.4 99
2019-12-06 08:00:00 0.3 6 Sur 13 Sudeste 0 930.3 0.5 99
2019-12-06 07:00:00 -0.5 0 Calma 4 Nordeste 0 930.4 0.5 98
2019-12-06 06:00:00 -0.2 0 Calma 11 Norte 0 929.9 0.3 98
2019-12-06 05:00:00 -0.5 9 Sudeste 9 Sudeste 0 929.8 -0.1 97
2019-12-06 04:00:00 -0.8 9 Sudeste 13 Sur 0 929.9 -0.2 96
2019-12-06 03:00:00 -0.4 5 Sudoeste 8 Sudoeste 0 929.6 -0.3 94
2019-12-06 02:00:00 1.6 5 Este 15 Nordeste 0 929.9 0.2 95
2019-12-06 01:00:00 0.6 12 Norte 13 Norte 0 930.1 0.4 95
2019-12-06 00:00:00 1.7 4 Norte 13 Sudeste 0 929.9 0.3 92
2019-12-05 23:00:00 3.2 4 Sudeste 17 Este 0 929.7 0.5 90
2019-12-05 22:00:00 5.3 13 Este 22 Nordeste 0 929.7 1.4 83
2019-12-05 21:00:00 7 14 Nordeste 26 Nordeste 0 929.6 1.7 79
2019-12-05 20:00:00 7.5 15 Nordeste 24 Nordeste 0 929.2 1.7 80
2019-12-05 19:00:00 7.6 9 Este 15 Este 0 928.3 1 82
2019-12-05 18:00:00 8.1 11 Nordeste 21 Nordeste 0 927.9 0.4 81
2019-12-05 17:00:00 9.2 10 Nordeste 21 Nordeste 0 927.5 0.1 76
2019-12-05 16:00:00 9.2 10 Este 17 Este 0 927.3 -0.5 77
2019-12-05 15:00:00 8.7 11 Este 22 Este 0 927.5 -0.7 77
2019-12-05 14:00:00 8.9 13 Este 30 Este 0 927.4 -0.5 76
2019-12-05 13:00:00 7.4 20 Nordeste 30 Este 0 927.8 0.6 79
2019-12-05 12:00:00 7 22 Este 35 Este 0 928.2 1.8 81
2019-12-05 11:00:00 5.9 19 Este 26 Este 0 927.9 2.3 85
2019-12-05 10:00:00 5.2 11 Este 17 Este 0 927.2 2.1 89
2019-12-05 09:00:00 4.5 10 Este 21 Este 0 926.4 1.6 90
2019-12-05 08:00:00 5.2 12 Nordeste 17 Nordeste 0 925.6 1.3 88
2019-12-05 07:00:00 5.5 11 Nordeste 21 Nordeste 0 925.1 0.6 88
2019-12-05 06:00:00 5.4 14 Este 21 Este 0 924.8 0.5 89
2019-12-05 05:00:00 4.6 9 Nordeste 13 Este 0 924.3 0.2 87
2019-12-05 04:00:00 3.8 0 Calma 13 Este 0 924.5 0.8 89
2019-12-05 03:00:00 3.9 13 Este 22 Este 0 924.3 1.6 88
2019-12-05 02:00:00 2.7 11 Este 18 Este 0 924.1 2 88
2019-12-05 01:00:00 2.3 9 Nordeste 21 Nordeste 0 923.7 2 90
2019-12-05 00:00:00 -0.3 11 Nordeste -- -- -- 922.7 1.3 98
2019-12-04 23:00:00 -0.8 0 Calma 4 Sudeste 0 922.1 0.8 97
2019-12-04 22:00:00 0.3 0 Calma 8 Sudeste 0 921.7 1.1 97
2019-12-04 21:00:00 1.9 3 Sur -- -- 0 921.4 0.9 95
2019-12-04 20:00:00 2.8 3 Sudoeste 8 Sur 0 921.3 1.5 93
2019-12-04 19:00:00 3.9 5 Noroeste 9 Noroeste 0 920.6 1 91
2019-12-04 18:00:00 5.4 4 Sudeste 9 Sudeste 0 920.5 0.9 86
2019-12-04 17:00:00 6.4 7 Este 15 Este 0 919.8 0.3 83
2019-12-04 16:00:00 6.5 9 Nordeste 22 Este 0 919.6 -0.7 82
2019-12-04 15:00:00 6.4 14 Este 28 Este 0 919.6 -1.2 79
2019-12-04 14:00:00 4.7 12 Norte 17 Noroeste 0 919.5 -1.2 83
2019-12-04 13:00:00 3.4 8 Nordeste 18 Nordeste 0 920.3 -0.3 90
2019-12-04 12:00:00 1.6 5 Sudoeste 8 Sudoeste 0 920.8 0.3 93
2019-12-04 11:00:00 0.8 4 Este 13 Este 0 920.7 0.6 97
2019-12-04 10:00:00 -0.7 5 Nordeste 15 Norte 0 920.6 0.6 98
2019-12-04 09:00:00 -2.3 11 Nordeste 17 Norte 0 920.5 0.4 96
2019-12-04 08:00:00 -2.6 4 Sudoeste 8 Noroeste 0 920.1 -0.6 96
2019-12-04 07:00:00 -1.6 6 Nordeste 11 Nordeste 0 920 -0.7 97
2019-12-04 06:00:00 -2.3 0 Calma 8 Nordeste 0 920.1 -1 97
2019-12-04 05:00:00 -3.6 7 Nordeste 15 Nordeste 0 920.7 -1.2 96
2019-12-04 04:00:00 -2.7 0 Calma 9 Oeste 0 920.7 -1.7 96
2019-12-04 03:00:00 -2.4 4 Oeste 11 Oeste 0 921.1 -1.2 97
2019-12-04 02:00:00 -2.4 0 Calma -- -- -- 921.9 -0.3 95
2019-12-04 01:00:00 -1.8 0 Calma 11 Oeste 0 922.4 -0.1 96
2019-12-04 00:00:00 -1.3 6 Sudoeste 9 Sur 0 922.3 -0.1 94
2019-12-03 23:00:00 -0.8 0 Calma 9 Nordeste 0 922.2 -0.3 92
2019-12-03 22:00:00 -0.7 6 Norte 9 Nordeste 0 922.5 0.4 94
2019-12-03 21:00:00 -0.4 0 Calma 5 Nordeste 0 922.4 0.3 94
2019-12-03 20:00:00 0.3 0 Calma -- -- 0 922.5 0.2 89
2019-12-03 19:00:00 1.8 4 Este 9 Este 0 922.1 -0.4 83
2019-12-03 18:00:00 4.5 7 Este 15 Este 0 922.1 -0.6 73
2019-12-03 17:00:00 6 10 Este 17 Este 0 922.3 -1.2 68
2019-12-03 16:00:00 6.5 12 Este 22 Sudeste 0 922.5 -1.9 66
2019-12-03 15:00:00 6 10 Este 22 Este 0 922.7 -2.7 69
2019-12-03 14:00:00 4.3 14 Este 24 Este 0 923.5 -2.1 75
2019-12-03 13:00:00 2.6 14 Este 28 Este 0 924.4 -1.4 82
2019-12-03 12:00:00 2.3 18 Este 33 Este 0 925.4 -0.1 86
2019-12-03 11:00:00 1.6 22 Este 32 Este 0 925.6 -0.2 87
2019-12-03 10:00:00 -0.1 9 Este 13 Este 0 925.8 -0.1 93
2019-12-03 09:00:00 -2.2 0 Calma 8 Nordeste 0 925.5 -0.4 95
2019-12-03 08:00:00 -1.8 6 Este 11 Este 0 925.8 -0.4 95
2019-12-03 07:00:00 -1.1 10 Este 21 Nordeste 0 925.9 -0.6 93
2019-12-03 06:00:00 -1.5 8 Este 13 Este 0 925.9 -1 94
2019-12-03 05:00:00 -1.7 4 Este 11 Este 0 926.2 -0.9 95
2019-12-03 04:00:00 -1.5 8 Sudeste 15 Nordeste 0 926.5 -1.3 92
2019-12-03 03:00:00 -1.2 10 Nordeste 13 Nordeste 0 926.9 -1 93
2019-12-03 02:00:00 -0.4 11 Este -- -- -- 927.1 -0.8 91
2019-12-03 01:00:00 0.3 10 Nordeste 22 Este 0 927.8 0.3 89
2019-12-03 00:00:00 1.1 14 Este 26 Este 0 927.9 0.4 88
2019-12-02 23:00:00 2.1 18 Este 42 Nordeste 0 927.9 1 85
2019-12-02 22:00:00 2.9 27 Nordeste 39 Nordeste 0 927.5 1.2 83
2019-12-02 21:00:00 3.6 26 Nordeste 46 Nordeste 0 927.5 1.7 81
2019-12-02 20:00:00 4.4 20 Nordeste 41 Nordeste 0 926.9 1.7 83
2019-12-02 19:00:00 5.5 23 Este 41 Este 0 926.3 1.4 80
2019-12-02 18:00:00 6.6 30 Nordeste 46 Nordeste 0 925.8 0.9 76
2019-12-02 17:00:00 8.1 31 Nordeste 54 Nordeste 0 925.2 0.1 70
2019-12-02 16:00:00 9.1 39 Nordeste 52 Este 0 924.9 -0.5 63
2019-12-02 15:00:00 8.7 33 Nordeste 54 Nordeste 0 924.9 -0.9 69
2019-12-02 14:00:00 8.3 38 Nordeste 52 Nordeste 0 925.1 -0.7 71
2019-12-02 13:00:00 7.9 37 Nordeste 54 Nordeste 0 925.4 0.2 73
2019-12-02 12:00:00 7.7 35 Este 55 Nordeste 0 925.8 1.1 76
2019-12-02 11:00:00 6.3 32 Nordeste 45 Este 0 925.8 1.6 84
2019-12-02 10:00:00 5 22 Nordeste 35 Nordeste 0 925.2 1.8 89
2019-12-02 09:00:00 3.4 22 Nordeste 37 Nordeste 0 924.7 1.7 93
2019-12-02 08:00:00 3 22 Nordeste 35 Nordeste 0 924.2 1.2 93
2019-12-02 07:00:00 3.2 27 Nordeste 39 Nordeste 0 923.4 0.6 92
2019-12-02 06:00:00 3.2 28 Nordeste 42 Nordeste 0 923 0.8 92
2019-12-02 05:00:00 3.4 30 Nordeste 48 Nordeste 0 923 1.2 92
2019-12-02 04:00:00 3.8 29 Nordeste 41 Nordeste 0 922.8 1.1 91
2019-12-02 03:00:00 4.4 25 Nordeste 45 Nordeste 0 922.2 0.6 91
2019-12-02 02:00:00 5.2 30 Nordeste -- -- -- 921.8 0.3 91
2019-12-02 01:00:00 4.8 21 Nordeste 37 Nordeste 0 921.7 0.5 92
2019-12-02 00:00:00 5.6 28 Nordeste 41 Nordeste 0 921.6 0.6 89
2019-12-01 23:00:00 6 23 Nordeste 33 Nordeste 0.2 921.5 1 92
2019-12-01 22:00:00 6 18 Nordeste 30 Nordeste 0 921.2 1.1 94
2019-12-01 21:00:00 6.1 20 Nordeste 30 Nordeste 0 921 1.8 91
2019-12-01 20:00:00 6.6 23 Nordeste 33 Nordeste 0 920.5 1.8 90
2019-12-01 19:00:00 7 21 Nordeste 30 Nordeste 0 920.1 1.6 91
2019-12-01 18:00:00 7.9 18 Nordeste 28 Este 0 919.2 1 84
2019-12-01 17:00:00 8.3 16 Este 24 Este 0 918.7 0.2 81
2019-12-01 16:00:00 8.6 19 Este 26 Este 0 918.5 -0.3 84
2019-12-01 15:00:00 9.8 19 Nordeste 26 Nordeste 0 918.2 -1.1 83
2019-12-01 14:00:00 9.7 8 Sudeste 15 Sudeste 0 918.5 -0.8 81
2019-12-01 13:00:00 8.9 0 Calma 15 Sur 0 918.8 0.3 81
2019-12-01 12:00:00 8.3 10 Sur 21 Sur 0 919.3 1.1 87
2019-12-01 11:00:00 7.4 12 Sur 21 Sur 0 919.3 1 90
2019-12-01 10:00:00 6.6 12 Sur 18 Sur 0 918.5 0.5 92
2019-12-01 09:00:00 6.6 14 Sudoeste 26 Sudoeste 0.1 918.2 -0.3 91
2019-12-01 08:00:00 6.6 14 Sudoeste 35 Sudoeste 1.6 918.3 -1 95
2019-12-01 07:00:00 6.2 13 Sur 21 Sur 0 918 -2.1 95
2019-12-01 06:00:00 6.2 14 Sur 35 Sudoeste 0.2 918.5 -2.1 92
2019-12-01 05:00:00 5.7 23 Sur 35 Sudoeste 0 919.3 -2.2 90
2019-12-01 04:00:00 6 25 Sudoeste 32 Sudoeste 0 920.1 -2.3 85
2019-12-01 03:00:00 3.5 4 Sur 21 Sur 0 920.6 -2.5 93
2019-12-01 02:00:00 3.1 10 Sur -- -- -- 921.5 -1.9 93
2019-12-01 01:00:00 3.6 14 Sudoeste 21 Sudoeste 0 922.4 -1.3 93
2019-12-01 00:00:00 4.8 17 Sudoeste 21 Sudoeste 0 923.1 -1.2 92
2019-11-30 23:00:00 4.5 13 Sudoeste 18 Sudoeste 0 923.4 -0.9 94
2019-11-30 22:00:00 4.6 13 Sur 18 Sudoeste 0 923.7 -0.5 94
2019-11-30 21:00:00 6.3 10 Sudoeste 24 Sudoeste 0 924.3 -0.2 94
2019-11-30 20:00:00 7.2 17 Sudoeste 22 Sudoeste 0 924.3 0.3 95
2019-11-30 19:00:00 7.9 17 Oeste 26 Oeste 0.1 924.2 0.2 92
2019-11-30 18:00:00 7.9 15 Oeste 35 Oeste 0.6 924.5 0.7 93
2019-11-30 17:00:00 8.8 27 Oeste 52 Noroeste 0 924 0.1 84
2019-11-30 16:00:00 9.3 36 Noroeste 50 Noroeste 3.1 924 -0.4 94
2019-11-30 15:00:00 11.1 32 Oeste 54 Sudoeste 1.4 923.8 -1.7 89
2019-11-30 14:00:00 12.4 36 Sudoeste 59 Sudoeste 0.3 923.9 -1.8 89
2019-11-30 13:00:00 13.4 42 Sudoeste 55 Sudoeste 0 924.4 -1.6 82
2019-11-30 12:00:00 13.1 42 Sudoeste 58 Sudoeste 0 925.5 -0.7 83
2019-11-30 11:00:00 12.8 41 Sudoeste 55 Sur 0 925.7 -0.7 84
2019-11-30 10:00:00 12.2 37 Sudoeste 50 Sur 0 926 -0.5 87
2019-11-30 09:00:00 11.6 30 Sur 42 Sudoeste 0 926.2 -0.8 91
2019-11-30 08:00:00 11.4 33 Sudoeste 42 Sudoeste 0 926.4 -0.9 92
2019-11-30 07:00:00 11.2 29 Sudoeste 39 Sudoeste 0 926.5 -1.5 91
2019-11-30 06:00:00 11.3 24 Sudoeste 32 Sudoeste 0 927 -1.3 92
2019-11-30 05:00:00 11.3 22 Sudoeste 28 Sudoeste 0 927.3 -0.8 92
2019-11-30 04:00:00 11.3 12 Sudoeste 15 Sudoeste 0 928 -0.4 94
2019-11-30 03:00:00 11.8 12 Sudoeste 24 Sudoeste 0 928.3 -0.6 94
2019-11-30 02:00:00 12.1 20 Sudoeste -- -- -- 928.1 -0.9 93
2019-11-30 01:00:00 12 15 Sudoeste 18 Sudoeste 0 928.4 -0.5 94
2019-11-30 00:00:00 11.8 9 Oeste 22 Sudoeste 0 928.9 0.1 95
2019-11-29 23:00:00 12.1 18 Oeste 24 Oeste 0 929 0.3 92
2019-11-29 22:00:00 11.9 15 Oeste 22 Oeste 0 928.9 0.4 95
2019-11-29 21:00:00 11.7 9 Sur 13 Sur 0 928.8 0.2 95
2019-11-29 20:00:00 11.6 12 Sudoeste 17 Sudoeste 0 928.7 0.4 95
2019-11-29 19:00:00 12.2 7 Sudeste 15 Sudoeste 0 928.5 0.4 90
2019-11-29 18:00:00 13 9 Sudoeste 13 Oeste 0 928.6 0.3 88
2019-11-29 17:00:00 13.5 10 Sudoeste 21 Oeste 0 928.3 -0.4 85
2019-11-29 16:00:00 13.6 18 Sudoeste 26 Sudoeste 0 928.1 -0.8 86
2019-11-29 15:00:00 14.1 15 Oeste 22 Oeste 0 928.3 -1.1 88
2019-11-29 14:00:00 13.4 18 Oeste 32 Oeste 0.2 928.7 -0.5 91
2019-11-29 13:00:00 13.1 22 Sudoeste 30 Oeste 0.1 928.9 0.3 92
2019-11-29 12:00:00 12.6 13 Oeste 22 Oeste 0 929.4 1.8 95
2019-11-29 11:00:00 11.9 15 Oeste 22 Oeste 1.6 929.2 2.4 97
2019-11-29 10:00:00 11.9 12 Oeste 24 Oeste 0 928.6 2.2 95
2019-11-29 09:00:00 11.5 16 Sudoeste 24 Sudoeste 0 927.6 1.5 93
2019-11-29 08:00:00 11.3 14 Sudoeste 24 Sudoeste 0.2 926.8 0.6 95
2019-11-29 07:00:00 11.3 12 Sudoeste 15 Sudoeste 0 926.4 0.4 94
2019-11-29 06:00:00 11.2 8 Sudoeste 18 Sudoeste 0 926.1 0.7 95
2019-11-29 05:00:00 11.4 16 Sudoeste 28 Sudoeste 0 926.2 1 96
2019-11-29 04:00:00 11.3 13 Sudoeste 30 Sudoeste 0 926 0.6 94
2019-11-29 03:00:00 11.2 14 Oeste 32 Oeste 0 925.4 0.4 94
2019-11-29 02:00:00 11.4 21 Sudoeste -- -- -- 925.2 0.3 92
2019-11-29 01:00:00 11.4 18 Sudoeste 28 Sudoeste 0 925.4 1 91
2019-11-29 00:00:00 11.7 17 Sudoeste 30 Sudoeste 0 925 1.1 87
2019-11-28 23:00:00 11.6 20 Sudoeste 33 Sudoeste 0 924.9 1.2 86
2019-11-28 22:00:00 11.5 22 Sudoeste 37 Sudoeste 0 924.4 0.9 85
2019-11-28 21:00:00 10.9 25 Sudoeste 39 Sudoeste 0 923.9 0.5 87
2019-11-28 20:00:00 10.3 27 Sudoeste 45 Sudoeste 0 923.7 0.5 88
2019-11-28 19:00:00 10.8 25 Sudoeste 39 Sudoeste 0 923.5 0.6 85
2019-11-28 18:00:00 10.8 24 Sudoeste 41 Sudoeste 0 923.4 0.1 84
2019-11-28 17:00:00 11.9 28 Sudoeste 46 Sudoeste 0 923.2 -0.9 80
2019-11-28 16:00:00 12.3 38 Sudoeste 50 Sudoeste 0 922.9 -1.6 77
2019-11-28 15:00:00 12.7 23 Sudoeste 45 Oeste 0 923.3 -1.9 74
2019-11-28 14:00:00 12.6 32 Sudoeste 46 Sur 0 924.1 -1.1 72
2019-11-28 13:00:00 13.4 35 Sudoeste 45 Sudoeste 0 924.5 0.3 72
2019-11-28 12:00:00 12.1 28 Sudoeste 39 Sudoeste 0 925.2 1.1 79
2019-11-28 11:00:00 10.7 28 Sudoeste 41 Sudoeste 0 925.2 1.7 85
2019-11-28 10:00:00 10 32 Sudoeste 39 Sudoeste 0 924.2 1.2 86
2019-11-28 09:00:00 8.7 24 Oeste 32 Oeste 0 924.1 1.4 91
2019-11-28 08:00:00 8.3 19 Sudoeste 37 Sudoeste 0 923.5 0.6 90
2019-11-28 07:00:00 8.6 23 Sudoeste 32 Sudoeste 0 923 -0.2 91
2019-11-28 06:00:00 8 19 Sudoeste 28 Sudoeste 0 922.7 -0.5 91
2019-11-28 05:00:00 8 18 Sudoeste 28 Sudoeste 0 922.9 0 90
2019-11-28 04:00:00 8.7 20 Sudoeste 30 Sudoeste 0 923.2 0.2 89
2019-11-28 03:00:00 8.8 20 Sudoeste 32 Oeste 0 923.2 0 88
2019-11-28 02:00:00 8.7 19 Sudoeste -- -- -- 922.9 -0.2 88
2019-11-28 01:00:00 8.3 14 Sudoeste 24 Oeste 0 923 0.4 87
2019-11-28 00:00:00 8.9 18 Sudoeste 32 Sudoeste 0 923.2 0.8 85
2019-11-27 23:00:00 8.9 19 Oeste 28 Sudoeste 0 923.1 1 86
2019-11-27 22:00:00 9.4 25 Oeste 35 Oeste 0 922.6 0.7 84
2019-11-27 21:00:00 9.6 19 Oeste 30 Sudoeste 0 922.4 1.2 84
2019-11-27 20:00:00 9.3 9 Sudoeste 21 Oeste 0 922.1 1.1 85
2019-11-27 19:00:00 9.3 16 Oeste 32 Oeste 0 921.9 1.4 83
2019-11-27 18:00:00 10.3 24 Oeste 48 Oeste 0 921.2 0.4 74
2019-11-27 17:00:00 11.2 25 Oeste 48 Oeste 0 921 0.2 71
2019-11-27 16:00:00 11.9 33 Oeste 50 Oeste 0 920.5 -1.2 66
2019-11-27 15:00:00 11.5 35 Sudoeste 50 Oeste 0 920.8 -1.4 72
2019-11-27 14:00:00 11.9 28 Sudoeste 48 Oeste 0 920.8 -1.4 73
2019-11-27 06:00:00 6.6 21 Sudoeste 35 Oeste 0 919.7 0.7 87
2019-11-27 05:00:00 6.8 21 Sudoeste 37 Oeste 0 919.5 1 87
2019-11-27 04:00:00 7.4 24 Oeste 42 Oeste 0 919.3 0.8 84
2019-11-27 03:00:00 7.8 29 Oeste 52 Oeste 0 919 0.8 84
2019-11-27 02:00:00 8.6 35 Oeste 63 Oeste 0 918.5 0.3 89
2019-11-27 01:00:00 9.2 32 Oeste 48 Oeste 0 918.5 1 91
2019-11-27 00:00:00 9.7 31 Oeste 46 Oeste 0 918.2 1.4 90
2019-11-26 23:00:00 10.2 38 Oeste 58 Oeste 0.3 918.2 1.5 90
2019-11-26 22:00:00 11.6 40 Oeste 58 Oeste 0 917.5 1 80
2019-11-26 21:00:00 11.8 33 Sudoeste 42 Sudoeste 0 916.8 0.4 83
2019-11-26 20:00:00 11.6 26 Sudoeste 46 Sudoeste 0 916.7 0.7 86
2019-11-26 19:00:00 12.2 26 Sudoeste 45 Sudoeste 0.2 916.5 0.1 88
2019-11-26 18:00:00 12.8 31 Sudoeste 63 Sudoeste 0.3 916.4 -0.7 90
2019-11-26 17:00:00 13.8 42 Sudoeste 65 Sudoeste 0 916 -1.9 84
2019-11-26 16:00:00 14.5 48 Sudoeste 68 Sudoeste 0 916.4 -2.4 80
2019-11-26 15:00:00 14.3 45 Sudoeste 63 Sudoeste 0 917.1 -2.6 82
2019-11-26 14:00:00 15 49 Sudoeste 67 Sudoeste 0 917.9 -2.4 78
2019-11-26 13:00:00 14.4 49 Sudoeste 71 Sudoeste 0 918.8 -1.9 79
2019-11-26 12:00:00 13.8 49 Sudoeste 68 Sudoeste 0 919.7 -1 82
2019-11-26 11:00:00 13.9 41 Sudoeste 59 Sudoeste 0 920.3 -0.6 83
2019-11-26 10:00:00 11.9 38 Sudoeste 50 Sudoeste 0.2 920.7 -0.3 90
2019-11-26 09:00:00 11.7 26 Sudoeste 37 Sudoeste 0 920.7 -0.7 88
2019-11-26 08:00:00 10.1 18 Sudoeste 32 Sur 0 920.9 -1 91
2019-11-26 07:00:00 10.3 24 Sudoeste 37 Sudoeste 0 921 -1.4 93
2019-11-26 06:00:00 9.6 21 Sudoeste 35 Sudoeste 0 921.4 -1.6 94
2019-11-26 05:00:00 10.4 23 Sur 37 Sudoeste 0 921.9 -1.6 89
2019-11-26 04:00:00 10.3 23 Sudoeste 33 Sudoeste 0 922.4 -1.5 91
2019-11-26 03:00:00 9.7 9 Sur 17 Sur 0 923 -1.4 94
2019-11-26 02:00:00 9.4 13 Sur 22 Sudoeste 0 923.5 -1.1 94
2019-11-26 01:00:00 8.5 11 Sur 21 Sur 0 923.9 -0.6 94
2019-11-26 00:00:00 8.2 13 Sur 17 Sur 0 924.4 -0.4 92
2019-11-25 23:00:00 9.1 13 Sudoeste 17 Sudoeste 0 924.6 -0.4 90
2019-11-25 22:00:00 9.1 10 Sudoeste 21 Sudoeste 0 924.5 0 90
2019-11-25 21:00:00 9.1 13 Sudoeste 18 Sudoeste 0 924.8 0.7 92
2019-11-25 20:00:00 9.6 18 Sudoeste 26 Sudoeste 0 925 1.2 91
2019-11-25 19:00:00 9.7 17 Oeste 22 Oeste 0 924.5 1.1 89
2019-11-25 18:00:00 11 14 Oeste 28 Oeste 0 924.1 0.7 80
2019-11-25 17:00:00 12.3 22 Oeste 37 Oeste 0 923.8 0.4 76
2019-11-25 16:00:00 13.2 20 Oeste 37 Oeste 0 923.4 -0.4 75
2019-11-25 15:00:00 13.6 28 Oeste 42 Oeste 0 923.4 -0.5 71
2019-11-25 14:00:00 13.6 23 Oeste 46 Oeste 0 923.4 0 74
2019-11-25 13:00:00 13.4 32 Oeste 46 Oeste 0 923.8 0.8 75
2019-11-25 12:00:00 12.9 26 Oeste 46 Oeste 0 923.9 1.4 80
2019-11-25 11:00:00 12.7 32 Oeste 48 Oeste 0 923.4 1.1 81
2019-11-25 10:00:00 10.5 12 Sudoeste 26 Sudoeste 0 923 1.1 91
2019-11-25 09:00:00 8.7 16 Sudoeste 22 Sudoeste 0 922.5 0.7 92
2019-11-25 08:00:00 8.1 10 Sudoeste 18 Sudoeste 0 922.3 0.6 95
2019-11-25 07:00:00 8.3 13 Sudoeste 24 Oeste 0 921.9 0.4 95
2019-11-25 06:00:00 9.6 15 Sudoeste 24 Oeste 0 921.8 0.6 93
2019-11-25 05:00:00 10.4 18 Oeste 30 Oeste 0 921.7 1 93
2019-11-25 04:00:00 9.3 17 Sudoeste 46 Oeste 0.6 921.5 1 97
2019-11-25 03:00:00 10.5 30 Oeste 42 Oeste 0.1 921.2 1 95
2019-11-25 02:00:00 9.5 27 Sudoeste 46 Sudoeste 0 920.7 -0.1 94
2019-11-25 01:00:00 9.5 32 Sudoeste 58 Sudoeste 0 920.5 -0.9 91
2019-11-25 00:00:00 9.3 36 Sudoeste 58 Sudoeste 0 920.2 -1.5 90
2019-11-24 23:00:00 9.2 40 Sudoeste 52 Sudoeste 0 920.8 -1.3 89
2019-11-24 22:00:00 8.8 27 Sudoeste 37 Sudoeste 0 921.4 -1.1 90
2019-11-24 21:00:00 8 26 Sudoeste 39 Sudoeste 0 921.7 -0.8 92
2019-11-24 20:00:00 8 27 Sudoeste 37 Sudoeste 0 922.1 -0.4 87
2019-11-24 19:00:00 8.3 19 Sudoeste 28 Sudoeste 0 922.5 -0.1 83
2019-11-24 18:00:00 8.8 20 Sudoeste 33 Sudoeste 0 922.5 -0.5 77
2019-11-24 17:00:00 10 21 Sudoeste 30 Sudoeste 0 922.5 -0.8 73
2019-11-24 16:00:00 9.7 20 Oeste 32 Oeste 0 922.6 -1.7 71
2019-11-24 15:00:00 9.3 23 Oeste 37 Oeste 0 923 -1.6 73
2019-11-24 14:00:00 9.3 23 Oeste 35 Oeste 0 923.3 -1.4 72
2019-11-24 13:00:00 8.8 22 Oeste 33 Sudoeste 0 924.3 0.1 72
2019-11-24 12:00:00 8.2 19 Sudoeste 28 Sudoeste 0 924.6 0.5 75
2019-11-24 11:00:00 7.1 15 Oeste 22 Oeste 0 924.7 1.1 79
2019-11-24 10:00:00 5.2 14 Sudoeste 21 Sudoeste 0 924.2 0.7 90
2019-11-24 09:00:00 2.1 5 Sudoeste 13 Sudoeste 0 924.1 1 96
2019-11-24 08:00:00 3.2 9 Sudoeste 24 Oeste 0 923.6 0.9 94
2019-11-24 07:00:00 4.1 17 Oeste 28 Oeste 0 923.5 0.8 95
2019-11-24 06:00:00 3.8 18 Oeste 26 Oeste 0 923.1 0.8 97
2019-11-24 05:00:00 3.2 13 Sudoeste 18 Sudoeste 0 922.7 0.6 94
2019-11-24 04:00:00 3.5 11 Sudoeste 21 Oeste 0 922.7 0.8 96
2019-11-24 03:00:00 3 13 Sudoeste 18 Oeste 0 922.3 0.6 96
2019-11-24 02:00:00 3.1 11 Oeste 18 Oeste 0 922.1 0.7 93
2019-11-24 01:00:00 4.6 14 Oeste 28 Oeste 0 921.9 0.9 91
2019-11-24 00:00:00 3.4 15 Oeste 21 Oeste 0 921.7 1.3 92
2019-11-23 23:00:00 4 14 Oeste 30 Oeste 0 921.4 1.8 89
2019-11-23 22:00:00 5.2 23 Oeste 30 Oeste 0 921 2.2 86
2019-11-23 21:00:00 5.1 16 Oeste 26 Oeste 0 920.4 2.3 84
2019-11-23 20:00:00 4.9 13 Oeste 24 Oeste 0 919.6 2.1 85
2019-11-23 19:00:00 5.7 17 Oeste 26 Oeste 0 918.8 2.4 79
2019-11-23 18:00:00 7.4 13 Oeste 32 Oeste 0 918.1 2.4 69
2019-11-23 17:00:00 8.4 22 Oeste 41 Oeste 0 917.5 2.1 66
2019-11-23 16:00:00 10 30 Oeste 46 Oeste 0 916.4 1.2 62
2019-11-23 15:00:00 9.7 36 Oeste 58 Noroeste 0 915.7 0.7 64
2019-11-23 14:00:00 9.6 40 Noroeste 54 Noroeste 0 915.4 1.3 64
2019-11-23 13:00:00 9.3 39 Oeste 63 Oeste 0 915.2 2.2 67
2019-11-23 12:00:00 8 30 Oeste 48 Oeste 0 915 3.1 74
2019-11-23 11:00:00 7.1 29 Oeste 46 Oeste 0 914.1 3.6 77
2019-11-23 10:00:00 5.6 20 Oeste 33 Oeste 0 913 3.7 82
2019-11-23 09:00:00 4.2 19 Oeste 41 Oeste 0 911.9 3.5 87
2019-11-23 08:00:00 4 27 Oeste 41 Oeste 0 910.5 3.1 86
2019-11-23 07:00:00 4.5 23 Oeste 42 Oeste 0 909.3 3.1 85
2019-11-23 06:00:00 5 24 Oeste 46 Oeste 0 908.4 2.9 83
2019-11-23 05:00:00 5.2 32 Oeste 55 Oeste 0 907.4 3 82
2019-11-23 04:00:00 5.6 36 Oeste 54 Oeste 0 906.2 2.1 84
2019-11-23 03:00:00 5.5 34 Oeste 58 Oeste 0 905.5 1.9 85
2019-11-23 02:00:00 5.4 36 Oeste 59 Oeste 0 904.4 1.5 85
2019-11-23 01:00:00 6 39 Oeste 65 Oeste 0 904.1 1.6 86
2019-11-23 00:00:00 6.5 36 Oeste 63 Oeste 0 903.6 1.6 86
2019-11-22 23:00:00 7.7 43 Oeste 61 Oeste 0 902.9 1.2 86
2019-11-22 22:00:00 7.9 46 Oeste 61 Oeste 0.2 902.5 0.4 87
2019-11-22 21:00:00 8.1 36 Sudoeste 55 Oeste 0 902 0.7 84
2019-11-22 20:00:00 8.5 41 Oeste 58 Oeste 0 901.7 1 82
2019-11-22 19:00:00 8.3 37 Oeste 58 Oeste 0 902.1 2.2 83
2019-11-22 18:00:00 8.5 37 Oeste 58 Oeste 0.7 901.3 1.6 87
2019-11-22 17:00:00 10.2 39 Oeste 72 Oeste 0 900.7 0.6 73
2019-11-22 16:00:00 12.4 28 Oeste 50 Sudoeste 0 899.9 -1.1 82
2019-11-22 15:00:00 12.4 36 Sudoeste 65 Sudoeste 0.3 899.7 -1.7 88
2019-11-22 14:00:00 13.6 49 Sudoeste 68 Sudoeste 0 900.1 -2.1 78
2019-11-22 13:00:00 12.2 51 Sudoeste 76 Sudoeste 0 901 -2.6 88
2019-11-22 12:00:00 10.4 57 Sudoeste 89 Sudoeste 1.8 901.4 -3.3 91
2019-11-22 11:00:00 10.9 43 Sudoeste 67 Sudoeste 0 902.2 -3.9 85
2019-11-22 10:00:00 10.4 43 Sudoeste 71 Sudoeste 0 903.6 -4.1 83
2019-11-22 09:00:00 8.8 35 Sudoeste 50 Sudoeste 0 904.7 -4.1 86
2019-11-22 08:00:00 7.5 28 Sur 48 Sudoeste 0.2 906.1 -3.7 90
2019-11-22 07:00:00 7.4 33 Sudoeste 55 Sudoeste 0.6 907.7 -3.3 88
2019-11-22 06:00:00 7.5 33 Sudoeste 54 Sudoeste 0.2 908.8 -3.1 88
2019-11-22 05:00:00 8.2 31 Sudoeste 42 Sudoeste 0 909.8 -3 83
2019-11-22 04:00:00 8.1 22 Sur 32 Sudoeste 0 911 -2.4 87
2019-11-22 03:00:00 7.7 17 Sudoeste 26 Sudoeste 0 911.9 -2 88
2019-11-22 02:00:00 7.3 17 Sudoeste 26 Oeste 0 912.8 -1.9 88
2019-11-22 01:00:00 7.2 17 Sudoeste 28 Sur 0 913.4 -1.6 89
2019-11-22 00:00:00 7.1 17 Sur 24 Sudoeste 0 913.9 -1.5 90
2019-11-21 23:00:00 6.9 13 Sudoeste 18 Sudoeste 0 914.7 -0.5 91
2019-11-21 22:00:00 6.2 5 Sur 9 Sur 0 915 -0.1 92
2019-11-21 21:00:00 6.3 3 Noroeste 15 Sudoeste 0 915.4 0.3 90
2019-11-21 20:00:00 5.7 10 Sudoeste 18 Sudoeste 0 915.2 0.3 89
2019-11-21 19:00:00 5.9 11 Sudoeste 18 Sudoeste 0 915.1 0.2 86
2019-11-21 18:00:00 7.2 13 Sudoeste 22 Sudoeste 0 915.1 0.1 80
2019-11-21 17:00:00 10.1 15 Oeste 22 Sudoeste 0 914.9 -0.5 69
2019-11-21 16:00:00 10.2 15 Oeste 41 Oeste 0 914.9 -0.6 72
2019-11-21 15:00:00 10.7 26 Oeste 45 Oeste 0 915 -1.4 69
2019-11-21 14:00:00 9.9 28 Oeste 39 Oeste 0 915.4 -0.7 74
2019-11-21 13:00:00 8.4 14 Oeste 32 Oeste 0.3 915.5 -0.2 89
2019-11-21 12:00:00 7.5 21 Oeste 37 Oeste 0.5 916.4 0.9 86
2019-11-21 11:00:00 8.4 21 Oeste 30 Oeste 0 916.1 1.2 87
2019-11-21 10:00:00 6.8 13 Sudoeste 18 Sudoeste 0 915.7 1 92
2019-11-21 09:00:00 6.2 12 Sudoeste 24 Sudoeste 0 915.5 0.6 92
2019-11-21 08:00:00 5.6 14 Sudoeste 24 Sudoeste 0 914.9 -0.1 94
2019-11-21 07:00:00 5.6 18 Sudoeste 22 Sudoeste 0 914.7 -0.6 93
2019-11-21 06:00:00 5.4 15 Sudoeste 26 Sudoeste 0.1 914.9 -0.4 92
2019-11-21 05:00:00 5.3 22 Sudoeste 33 Sudoeste 0 915 -0.5 91
2019-11-21 04:00:00 3.8 11 Sur 17 Sur 0 915.3 -0.4 96
2019-11-21 03:00:00 3.6 11 Sur 21 Sudoeste 0 915.3 -0.5 92
2019-11-21 02:00:00 3.9 8 Oeste 22 Sudoeste 0 915.5 -0.4 93
2019-11-21 01:00:00 3.2 4 Oeste 17 Sudoeste 0 915.7 -0.1 95
2019-11-21 00:00:00 3.8 14 Sur 24 Sur 0 915.8 0.2 93
2019-11-20 23:00:00 4 19 Sudoeste 26 Sudoeste 0 915.9 0.1 93
2019-11-20 22:00:00 4 14 Sudoeste 21 Sudoeste 0 915.8 0.2 93
2019-11-20 21:00:00 4 2 Sur 22 Sudoeste 0 915.6 0.5 91
2019-11-20 20:00:00 5.5 16 Sudoeste 22 Sudoeste 0 915.8 0.3 90
2019-11-20 19:00:00 5.3 13 Sudoeste 22 Sudoeste 0 915.6 0.2 90
2019-11-20 18:00:00 5.8 12 Sur 24 Sudoeste 0 915.1 -0.4 86
2019-11-20 17:00:00 6.8 23 Sudoeste 35 Sudoeste 0 915.5 -0.4 84
2019-11-20 16:00:00 7.2 23 Sudoeste 32 Sudoeste 0 915.4 -1.3 84
2019-11-20 15:00:00 6.7 18 Sudoeste 33 Sudoeste 0 915.5 -1.9 86
2019-11-20 14:00:00 6.3 19 Sudoeste 33 Sur 0 915.9 -2 88
2019-11-20 13:00:00 6.6 22 Sudoeste 35 Sudoeste 0.3 916.7 -1.3 88
2019-11-20 12:00:00 5.7 24 Sudoeste 33 Sudoeste 0.5 917.4 -0.6 92
2019-11-20 11:00:00 5.2 17 Sur 24 Sur 1.3 917.9 -0.1 92
2019-11-20 10:00:00 5.1 9 Sudoeste 24 Sudoeste 0.5 918 0.1 93
2019-11-20 09:00:00 4.7 12 Sudoeste 18 Sudoeste 1.4 918 -0.1 93
2019-11-20 08:00:00 4.2 5 Oeste 21 Sur 3 918 -0.6 92
2019-11-20 07:00:00 4.5 11 Sur 21 Sur 0.3 917.9 -1.5 91
2019-11-20 06:00:00 4.5 14 Sur 21 Sur 0.2 918.1 -1.7 91
2019-11-20 05:00:00 4.8 8 Sur 13 Sur 0.2 918.6 -1.6 93
2019-11-20 04:00:00 4.9 0 Calma 15 Sudoeste 0.4 919.4 -1.4 91
2019-11-20 03:00:00 5.5 4 Sudoeste -- -- 0 919.8 -1.6 78
2019-11-20 02:00:00 5.4 5 Sur 13 Sudoeste 0 920.2 -1.8 82
2019-11-20 01:00:00 5.3 8 Sur 15 Sur 0 920.8 -1.3 80
2019-11-20 00:00:00 5.5 11 Sur 15 Sur 0 921.4 -0.9 79
2019-11-19 23:00:00 5.5 7 Sur 9 Sur 0 922 -0.6 82
2019-11-19 22:00:00 5.8 4 Sur 9 Sudoeste 0 922.1 -0.3 78
2019-11-19 21:00:00 5.8 2 Sur 13 Sur 0 922.3 -0.1 75
2019-11-19 20:00:00 6.3 9 Sur 11 Sur 0 922.6 0.1 75
2019-11-19 19:00:00 6.8 8 Sur 11 Sur 0 922.4 -0.5 71
2019-11-19 18:00:00 7.5 8 Sur 13 Sudoeste 0 922.4 -0.9 66
2019-11-19 17:00:00 8.8 8 Sudoeste 15 Oeste 0 922.5 -1.5 62
2019-11-19 16:00:00 9.2 10 Oeste 17 Oeste 0 922.9 -1.9 53
2019-11-19 15:00:00 9.6 8 Oeste 22 Oeste 0 923.3 -2.2 54
2019-11-19 14:00:00 9.3 13 Oeste 22 Oeste 0 924 -1.7 56
2019-11-19 13:00:00 8.7 6 Sur 11 Sudoeste 0 924.8 -1.1 64
2019-11-19 12:00:00 5.9 2 Sur 5 Sudoeste 0 925.5 -0.1 81
2019-11-19 11:00:00 2.1 0 Calma 5 Sudeste 0 925.7 0.3 94
2019-11-19 10:00:00 -0.3 0 Calma 8 Este 0 925.9 0.4 97
2019-11-19 09:00:00 -1.9 6 Este 8 Este 0 925.6 0 96
2019-11-19 08:00:00 -2.6 2 Este 8 Este 0 925.4 -0.2 96
2019-11-19 07:00:00 -3.1 0 Calma 5 Sur 0 925.5 -0.4 96
2019-11-19 06:00:00 -2.9 0 Calma 17 Oeste 0 925.6 0 96
2019-11-19 05:00:00 -2.7 0 Calma 5 Este 0 925.6 -0.4 97
2019-11-19 04:00:00 -2.2 0 Calma 5 Sudeste 0 925.9 -0.3 97
2019-11-19 03:00:00 -1.9 0 Calma 5 Este 0 925.6 -0.7 96
2019-11-19 02:00:00 -1.5 5 Sudeste 8 Sudeste 0 926 -0.7 95
2019-11-19 01:00:00 -1.2 0 Calma 5 Este 0 926.2 -0.2 96
2019-11-19 00:00:00 -0.2 4 Este 9 Sur 0 926.3 0 95
2019-11-18 23:00:00 1.1 8 Sur 9 Sur 0 926.7 0.9 94
2019-11-18 22:00:00 2.4 0 Calma 8 Nordeste 0 926.4 0.8 92
2019-11-18 21:00:00 2.3 0 Calma 9 Sur 0 926.3 1 91
2019-11-18 20:00:00 3.1 7 Sur 11 Sur 0 925.8 0.5 86
2019-11-18 19:00:00 4.6 8 Sur 11 Sur 0 925.6 0.6 80
2019-11-18 18:00:00 7.5 7 Sudeste 9 Este 0 925.3 0.5 68
2019-11-18 17:00:00 8.7 6 Este 13 Norte 0 925.3 0.3 65
2019-11-18 16:00:00 9.2 9 Norte 21 Noroeste 0 925 -0.3 65
2019-11-18 15:00:00 8.3 10 Norte 21 Norte 0 924.8 -0.7 66
2019-11-18 14:00:00 7.5 4 Noroeste 13 Oeste 0 925 -0.3 72
2019-11-18 13:00:00 7 3 Este 17 Este 0 925.3 0.4 75
2019-11-18 12:00:00 5 5 Oeste 11 Oeste 0 925.5 1.2 92
2019-11-18 11:00:00 2.9 7 Sur 11 Sur 0 925.3 1.7 99
2019-11-18 10:00:00 1.6 5 Sur 9 Sudoeste 0 924.9 1.8 99
2019-11-18 09:00:00 0.5 3 Noroeste 9 Noroeste 0 924.3 1.8 99
2019-11-18 08:00:00 0.5 8 Noroeste 11 Noroeste 0 923.6 1.9 99
2019-11-18 07:00:00 0.4 7 Noroeste 15 Noroeste 0 923.1 1.9 98
2019-11-18 06:00:00 -1.4 9 Oeste 11 Oeste 0 922.5 1.6 98
2019-11-18 05:00:00 -0.2 6 Oeste 13 Noroeste 0 921.7 0.9 98
2019-11-18 04:00:00 -0.3 9 Sudoeste 13 Sudoeste 0 921.2 0.5 98
2019-11-18 03:00:00 -0.4 6 Sur 15 Oeste 0 920.9 0.4 97
2019-11-18 02:00:00 0.2 9 Oeste 13 Oeste 0 920.8 0.1 96
2019-11-18 01:00:00 0.9 9 Sudoeste 15 Oeste 0 920.7 0.4 95
2019-11-18 00:00:00 1.6 12 Oeste 18 Oeste 0 920.5 0.4 94
2019-11-17 23:00:00 2.5 15 Oeste 21 Oeste 0 920.7 0.6 90
2019-11-17 22:00:00 2.8 10 Oeste 21 Oeste 0 920.3 0.8 92
2019-11-17 21:00:00 3.9 11 Oeste 30 Oeste 0 920.1 0.9 93
2019-11-17 20:00:00 5.5 20 Noroeste 30 Noroeste 0 920.1 1.2 90
2019-11-17 19:00:00 6.6 24 Noroeste 37 Oeste 0.1 919.5 0.2 89
2019-11-17 18:00:00 7.8 27 Noroeste 41 Noroeste 2.2 919.2 -0.6 93
2019-11-17 17:00:00 9.4 17 Oeste 35 Oeste 0.1 918.9 -1.6 91
2019-11-17 16:00:00 9.8 21 Oeste 42 Oeste 0.1 919.3 -1.8 91
2019-11-17 15:00:00 10.8 27 Oeste 50 Oeste 0 919.8 -1.7 83
2019-11-17 14:00:00 10.9 31 Oeste 48 Oeste 0 920.5 -1.2 84
2019-11-17 13:00:00 8.6 25 Oeste 39 Oeste 0 921.1 -1 91
2019-11-17 12:00:00 7.9 26 Sudoeste 37 Sudoeste 0 921.5 -0.7 92
2019-11-17 11:00:00 7.1 20 Sudoeste 32 Sudoeste 0.2 921.7 -0.3 94
2019-11-17 10:00:00 6.7 18 Oeste 26 Sudoeste 0 922.1 -0.1 90
2019-11-17 09:00:00 4.9 9 Sudoeste 17 Sudoeste 0 922.2 -0.7 88
2019-11-17 08:00:00 4.6 14 Sudoeste 24 Sudoeste 0 922 -1.2 86
2019-11-17 07:00:00 4.4 15 Sudoeste 24 Sudoeste 0 922.2 -1.3 85
2019-11-17 06:00:00 4.1 16 Sudoeste 26 Sudoeste 0 922.9 -0.9 85
2019-11-17 05:00:00 4.1 13 Sudoeste 18 Sudoeste 0 923.2 -1 87
2019-11-17 04:00:00 3.7 13 Sudoeste 18 Oeste 0 923.5 -1 89
2019-11-17 03:00:00 3.6 11 Sudoeste 18 Oeste 0 923.8 -1 86
2019-11-17 02:00:00 3.2 14 Oeste 22 Oeste 0 924.2 -0.7 86
2019-11-17 01:00:00 0.8 11 Oeste 21 Oeste 0 924.5 -0.5 86
2019-11-17 00:00:00 3.1 12 Oeste 18 Sudoeste 0 924.8 0 83
2019-11-16 23:00:00 1.3 8 Oeste 13 Sudoeste 0 924.9 0.1 90
2019-11-16 22:00:00 1.3 8 Oeste 11 Oeste 0 925 0.2 88
2019-11-16 21:00:00 0.6 8 Oeste 11 Oeste 0 924.8 0.4 88
2019-11-16 20:00:00 1.3 12 Oeste 15 Sudoeste 0 924.8 0.7 86
2019-11-16 19:00:00 2.3 13 Oeste 18 Oeste 0 924.8 0.8 80
2019-11-16 18:00:00 4.5 17 Oeste 37 Oeste 0 924.4 0.6 71
2019-11-16 17:00:00 7.5 25 Oeste 39 Oeste 0 924.1 0.2 61
2019-11-16 16:00:00 7.8 20 Oeste 33 Oeste 0 924 -0.1 64
2019-11-16 15:00:00 6.8 19 Oeste 35 Oeste 0 923.8 -0.5 69
2019-11-16 14:00:00 6.1 22 Oeste 37 Oeste 0 923.9 -0.5 71
2019-11-16 13:00:00 5.9 19 Oeste 32 Oeste 0 924.1 0.1 73
2019-11-16 12:00:00 3.5 15 Oeste 24 Oeste 0 924.3 1.1 86
2019-11-16 11:00:00 0.8 14 Oeste 22 Oeste 0 924.4 2.1 97
2019-11-16 10:00:00 -0.4 17 Oeste 24 Oeste 0 924 2.7 96
2019-11-16 09:00:00 -1.8 4 Oeste 8 Oeste 0 923.2 2.2 96
2019-11-16 08:00:00 -3.4 6 Oeste 13 Sudoeste 0 922.3 1.6 95
2019-11-16 07:00:00 -2.6 10 Sur 13 Sudoeste 0 921.3 1 95
2019-11-16 06:00:00 -2.4 10 Sur 11 Sur 0 921 1.4 94
2019-11-16 05:00:00 -2 9 Oeste 11 Oeste 0 920.7 1.5 95
2019-11-16 04:00:00 -1.5 8 Oeste 11 Oeste 0 920.3 1.4 96
2019-11-16 03:00:00 -1.1 5 Oeste 13 Oeste 0 919.6 1.2 95
2019-11-16 02:00:00 -0.7 5 Sudoeste 17 Noroeste 0 919.2 1.4 93
2019-11-16 01:00:00 0.1 9 Oeste 17 Noroeste 0 918.9 1.5 90
2019-11-16 00:00:00 1 11 Oeste 24 Oeste 0 918.4 1.8 89
2019-11-15 23:00:00 2.3 16 Noroeste 24 Noroeste 0 917.8 1.5 87
2019-11-15 22:00:00 3 16 Oeste 26 Oeste 0 917.4 1.6 83
2019-11-15 21:00:00 2.5 18 Oeste 28 Noroeste 0 916.6 1.4 83
2019-11-15 20:00:00 2.7 17 Oeste 30 Oeste 0 916.3 1.3 79
2019-11-15 19:00:00 4 23 Noroeste 37 Noroeste 0 915.8 0.9 71
2019-11-15 18:00:00 4.6 18 Oeste 37 Noroeste 0 915.2 0.2 70
2019-11-15 17:00:00 6.5 23 Oeste 35 Oeste 0 915 -0.2 61
2019-11-15 16:00:00 7.7 23 Oeste 33 Oeste 0 914.9 -0.7 58
2019-11-15 15:00:00 7.2 23 Noroeste 37 Noroeste 0 915 -1 61
2019-11-15 14:00:00 7.5 22 Oeste 35 Oeste 0 915.2 -0.6 64
2019-11-15 13:00:00 7.3 24 Noroeste 37 Noroeste 0 915.6 0 68
2019-11-15 12:00:00 5.7 24 Oeste 39 Oeste 0 916 0.6 72
2019-11-15 11:00:00 4 25 Noroeste 33 Noroeste 0 915.8 0.9 80
2019-11-15 10:00:00 3.5 22 Oeste 32 Oeste 0 915.6 1.5 84
2019-11-15 09:00:00 1.4 14 Oeste 24 Oeste 0 915.4 1.7 91
2019-11-15 08:00:00 0.6 15 Oeste 21 Oeste 0 914.9 1.2 92
2019-11-15 07:00:00 0.5 13 Oeste 28 Noroeste 0 914.1 0.3 90
2019-11-15 06:00:00 1 21 Oeste 30 Noroeste 0 913.7 -0.2 88
2019-11-15 05:00:00 2.2 21 Oeste 33 Oeste 0 913.7 -0.2 84
2019-11-15 04:00:00 2.6 24 Oeste 41 Noroeste 0 913.8 0.1 83
2019-11-15 03:00:00 2.9 24 Oeste 45 Oeste 0 913.9 0.6 82
2019-11-15 02:00:00 3.2 26 Oeste 39 Oeste 0 913.9 0.8 81
2019-11-15 01:00:00 3 28 Oeste 45 Noroeste 0 913.7 1.2 83
2019-11-15 00:00:00 3.6 31 Oeste 46 Oeste 0 913.3 1.3 81